Time;durP1;ratioP1;P1;durP2;ratioP2;P2;SDS_P1;SDS_P2;PMS_P1;PMS_P2;Temp;Humidity;BMP_temperature;BMP_pressure;BME280_temperature;BME280_humidity;BME280_pressure;Samples;Min_cycle;Max_cycle;Signal;HPM_P1;HPM_P2
2023/04/01 00:00:57;;;;;;;;;;;;;;;14.61;54.41;99568.63;5052857;28;19917;-89
2023/04/01 00:03:49;;;;;;;;;;;;;;;14.51;53.91;99572.78;5057943;28;19921;-88
2023/04/01 00:06:41;;;;;;;;;;;;;;;14.55;53.85;99559.94;5022206;28;19925;-89
2023/04/01 00:09:33;;;;;;;;;;;;;;;14.58;53.94;99570.13;5020858;28;19917;-89
2023/04/01 00:12:24;;;;;;;;;;;;;;;14.55;54.51;99568.94;5058482;28;19917;-89
2023/04/01 00:15:16;;;;;;;;;;;;;;;14.42;55.43;99573.06;5055781;28;19916;-89
2023/04/01 00:18:08;;;;;;;;;;;;;;;14.45;55.26;99572.31;5051713;28;19916;-89
2023/04/01 00:21:00;;;;;;;;;;;;;;;14.45;55.75;99572.31;5044421;28;20383;-88
2023/04/01 00:23:52;;;;;;;;;;;;;;;14.44;55.85;99580.88;5057403;28;19925;-89
2023/04/01 00:26:42;;;;;;;;;;;;;;;14.49;55.23;99581.34;5051781;28;19917;-89
2023/04/01 00:29:33;;;;;;;;;;;;;;;14.50;55.34;99582.94;5040927;28;19916;-89
2023/04/01 00:32:27;;;;;;;;;;;;;;;14.46;55.93;99587.56;5058471;28;19916;-89
2023/04/01 00:35:19;;;;;;;;;;;;;;;14.38;56.15;99583.16;5032186;28;19917;-90
2023/04/01 00:38:11;;;;;;;;;;;;;;;14.42;55.87;99583.22;5042761;28;19921;-90
2023/04/01 00:41:03;;;;;;;;;;;;;;;14.45;55.45;99582.47;5068992;23;19929;-76
2023/04/01 00:43:54;;;;;;;;;;;;;;;14.44;55.00;99589.88;5053423;28;19921;-76
2023/04/01 00:46:46;;;;;;;;;;;;;;;14.28;55.53;99594.69;5053362;28;19917;-76
2023/04/01 00:49:39;;;;;;;;;;;;;;;14.01;57.24;99593.09;5042035;28;19917;-76
2023/04/01 00:52:31;;;;;;;;;;;;;;;13.63;59.76;99597.50;5024796;28;19921;-76
2023/04/01 00:55:24;;;;;;;;;;;;;;;13.53;60.16;99595.34;5023720;28;20384;-76
2023/04/01 00:58:16;;;;;;;;;;;;;;;13.65;60.09;99594.41;5030059;28;19917;-76
2023/04/01 01:01:09;;;;;;;;;;;;;;;13.79;59.97;99594.66;5015123;28;19918;-76
2023/04/01 01:04:01;;;;;;;;;;;;;;;13.98;59.30;99585.59;5028229;28;19922;-76
2023/04/01 01:06:57;;;;;;;;;;;;;;;14.12;58.41;99583.88;5037554;28;19917;-76
2023/04/01 01:09:50;;;;;;;;;;;;;;;14.16;58.32;99583.16;5032325;28;19928;-76
2023/04/01 01:12:46;;;;;;;;;;;;;;;14.03;58.92;99588.03;5034342;28;19920;-76
2023/04/01 01:15:36;;;;;;;;;;;;;;;13.95;58.70;99583.59;5048571;28;19917;-76
2023/04/01 01:18:45;;;;;;;;;;;;;;;13.86;60.01;99600.25;5015338;28;20447;-76
2023/04/01 01:21:43;;;;;;;;;;;;;;;13.66;61.20;99599.50;5018491;28;20305;-76
2023/04/01 01:24:52;;;;;;;;;;;;;;;13.98;59.40;99596.53;5014972;28;20377;-76
2023/04/01 01:27:51;;;;;;;;;;;;;;;14.04;58.89;99590.41;5016116;28;19917;-76
2023/04/01 01:30:59;;;;;;;;;;;;;;;14.13;58.01;99581.94;5045057;28;19917;-76
2023/04/01 01:33:57;;;;;;;;;;;;;;;14.07;57.60;99583.41;5053082;28;20364;-76
2023/04/01 01:36:50;;;;;;;;;;;;;;;14.02;58.38;99580.97;5036447;28;19917;-76
2023/04/01 01:39:41;;;;;;;;;;;;;;;13.99;58.71;99570.78;5033991;28;19917;-76
2023/04/01 01:42:35;;;;;;;;;;;;;;;14.08;58.34;99580.31;5034335;28;19917;-76
2023/04/01 01:45:28;;;;;;;;;;;;;;;14.06;58.13;99581.84;5035531;28;20312;-76
2023/04/01 01:48:20;;;;;;;;;;;;;;;14.08;58.02;99580.31;5033425;28;19921;-76
2023/04/01 01:51:12;;;;;;;;;;;;;;;14.01;57.79;99565.75;5033144;28;19921;-77
2023/04/01 01:54:04;;;;;;;;;;;;;;;14.09;57.58;99575.63;5022531;28;19918;-76
2023/04/01 01:56:57;;;;;;;;;;;;;;;13.89;57.84;99569.47;5038103;28;19917;-76
2023/04/01 01:59:50;;;;;;;;;;;;;;;13.66;58.81;99569.44;5049636;28;19916;-76
2023/04/01 02:02:50;;;;;;;;;;;;;;;13.86;58.07;99572.13;5047464;28;20372;-76
2023/04/01 02:05:37;;;;;;;;;;;;;;;13.83;57.81;99568.19;5051153;28;20300;-76
2023/04/01 02:08:34;;;;;;;;;;;;;;;13.75;57.59;99568.44;5033590;28;19924;-76
2023/04/01 02:11:33;;;;;;;;;;;;;;;13.86;57.21;99577.59;5023373;28;19917;-76
2023/04/01 02:14:25;;;;;;;;;;;;;;;13.88;57.18;99572.53;5033303;28;19917;-76
2023/04/01 02:17:20;;;;;;;;;;;;;;;13.84;56.90;99580.69;5022053;28;19918;-76
2023/04/01 02:20:15;;;;;;;;;;;;;;;13.84;56.78;99588.09;5013753;28;19917;-76
2023/04/01 02:23:08;;;;;;;;;;;;;;;13.78;56.93;99593.06;5014815;28;19921;-76
2023/04/01 02:26:00;;;;;;;;;;;;;;;13.84;56.92;99582.63;5018602;28;19917;-76
2023/04/01 02:28:53;;;;;;;;;;;;;;;13.78;56.33;99581.34;5015794;28;19921;-76
2023/04/01 02:31:45;;;;;;;;;;;;;;;13.75;56.19;99582.09;5032435;28;20388;-76
2023/04/01 02:34:37;;;;;;;;;;;;;;;13.68;56.60;99574.56;5026646;28;19917;-76
2023/04/01 02:37:26;;;;;;;;;;;;;;;13.58;57.33;99581.41;5031381;28;19917;-76
2023/04/01 02:40:18;;;;;;;;;;;;;;;13.66;57.32;99576.88;5032190;28;20322;-76
2023/04/01 02:43:10;;;;;;;;;;;;;;;13.65;56.73;99578.81;5050442;28;19921;-76
2023/04/01 02:46:02;;;;;;;;;;;;;;;13.68;56.97;99575.34;5033403;28;19921;-76
2023/04/01 02:48:54;;;;;;;;;;;;;;;13.63;56.02;99569.38;5032784;28;20395;-76
2023/04/01 02:51:46;;;;;;;;;;;;;;;13.61;55.80;99569.75;5034511;28;19917;-76
2023/04/01 02:54:38;;;;;;;;;;;;;;;13.54;54.98;99577.81;5022432;28;19918;-76
2023/04/01 02:57:29;;;;;;;;;;;;;;;13.17;57.47;99590.34;5036443;28;19917;-76
2023/04/01 03:00:21;;;;;;;;;;;;;;;12.77;58.52;99593.41;5032623;28;19917;-76
2023/04/01 03:03:13;;;;;;;;;;;;;;;12.77;58.42;99599.66;5020330;28;19921;-76
2023/04/01 03:06:12;;;;;;;;;;;;;;;12.92;58.94;99610.84;5015978;28;20373;-76
2023/04/01 03:09:04;;;;;;;;;;;;;;;13.12;55.74;99594.16;5012762;28;20389;-76
2023/04/01 03:11:53;;;;;;;;;;;;;;;13.12;55.05;99593.38;5017096;28;19917;-76
2023/04/01 03:14:45;;;;;;;;;;;;;;;13.08;55.92;99611.59;5032199;28;19917;-76
2023/04/01 03:17:37;;;;;;;;;;;;;;;13.07;56.42;99607.28;5024210;28;19917;-76
2023/04/01 03:20:24;;;;;;;;;;;;;;;13.05;56.85;99606.88;5034112;28;19917;-76
2023/04/01 03:23:16;;;;;;;;;;;;;;;12.96;57.83;99598.06;5020850;28;19921;-76
2023/04/01 03:26:08;;;;;;;;;;;;;;;13.05;58.11;99598.69;5026633;28;20373;-76
2023/04/01 03:28:59;;;;;;;;;;;;;;;13.09;58.39;99592.16;5043610;28;19917;-76
2023/04/01 03:31:51;;;;;;;;;;;;;;;13.14;56.39;99589.16;5027187;28;19917;-76
2023/04/01 03:34:43;;;;;;;;;;;;;;;13.02;55.87;99585.72;5017647;28;20381;-76
2023/04/01 03:37:35;;;;;;;;;;;;;;;12.98;58.34;99593.06;5020948;28;20301;-76
2023/04/01 03:40:27;;;;;;;;;;;;;;;12.94;58.59;99597.66;5031895;28;19917;-76
2023/04/01 03:43:19;;;;;;;;;;;;;;;12.99;58.42;99608.28;5027350;28;19921;-76
2023/04/01 03:46:10;;;;;;;;;;;;;;;12.99;58.59;99608.28;5047663;28;19917;-76
2023/04/01 03:49:02;;;;;;;;;;;;;;;13.02;58.96;99610.28;5025629;28;19922;-76
2023/04/01 03:51:54;;;;;;;;;;;;;;;12.46;60.61;99627.00;5029262;28;19918;-76
2023/04/01 03:54:46;;;;;;;;;;;;;;;11.95;61.41;99628.84;5012613;28;19917;-76
2023/04/01 03:57:38;;;;;;;;;;;;;;;12.13;60.81;99623.88;5033460;28;19917;-76
2023/04/01 04:00:38;;;;;;;;;;;;;;;12.56;59.02;99617.47;5030842;28;19917;-76
2023/04/01 04:03:31;;;;;;;;;;;;;;;12.68;58.48;99620.09;5045863;28;20539;-76
2023/04/01 04:06:24;;;;;;;;;;;;;;;12.64;58.43;99627.41;5035469;28;19917;-76
2023/04/01 04:09:13;;;;;;;;;;;;;;;12.37;60.25;99620.94;5046008;28;19917;-76
2023/04/01 04:12:05;;;;;;;;;;;;;;;12.60;58.37;99615.59;5025275;28;19917;-75
2023/04/01 04:14:57;;;;;;;;;;;;;;;12.65;57.63;99628.97;5048684;28;19917;-76
2023/04/01 04:17:49;;;;;;;;;;;;;;;12.06;59.82;99629.91;5023370;28;19925;-76
2023/04/01 04:20:45;;;;;;;;;;;;;;;12.51;57.80;99629.44;5029986;28;20392;-76
2023/04/01 04:23:37;;;;;;;;;;;;;;;12.65;57.05;99632.50;5029910;28;19921;-76
2023/04/01 04:26:29;;;;;;;;;;;;;;;12.11;58.96;99634.31;5034369;28;19916;-76
2023/04/01 04:29:22;;;;;;;;;;;;;;;11.82;59.81;99635.53;5039909;28;20384;-78
2023/04/01 04:32:14;;;;;;;;;;;;;;;12.25;57.96;99621.81;5033825;28;19917;-79
2023/04/01 04:35:06;;;;;;;;;;;;;;;12.28;56.60;99631.25;5054210;28;19917;-79
2023/04/01 04:37:58;;;;;;;;;;;;;;;12.21;57.22;99637.31;5036513;28;19917;-79
2023/04/01 04:40:48;;;;;;;;;;;;;;;12.35;56.17;99631.41;5018347;28;19918;-79
2023/04/01 04:43:39;;;;;;;;;;;;;;;12.31;56.17;99635.97;5026696;28;19921;-79
2023/04/01 04:46:31;;;;;;;;;;;;;;;12.36;56.39;99636.50;5018308;28;19925;-79
2023/04/01 04:49:30;;;;;;;;;;;;;;;12.26;57.08;99634.31;5031564;28;19921;-79
2023/04/01 04:52:22;;;;;;;;;;;;;;;12.29;57.38;99633.59;5043655;28;19917;-79
2023/04/01 04:55:14;;;;;;;;;;;;;;;12.22;56.86;99638.09;5031958;28;19917;-79
2023/04/01 04:58:06;;;;;;;;;;;;;;;12.22;57.51;99646.28;5042106;28;20308;-79
2023/04/01 05:00:56;;;;;;;;;;;;;;;12.05;57.65;99652.06;5038924;28;20300;-80
2023/04/01 05:03:52;;;;;;;;;;;;;;;12.15;57.63;99651.53;5021313;28;19921;-79
2023/04/01 05:06:40;;;;;;;;;;;;;;;12.12;58.16;99652.25;5045885;28;20399;-79
2023/04/01 05:09:31;;;;;;;;;;;;;;;12.17;58.56;99652.00;5052158;28;19917;-79
2023/04/01 05:12:23;;;;;;;;;;;;;;;12.20;58.02;99657.53;5050169;28;19921;-80
2023/04/01 05:15:22;;;;;;;;;;;;;;;12.14;58.52;99663.59;5047912;28;19921;-81
2023/04/01 05:18:20;;;;;;;;;;;;;;;11.57;59.21;99664.78;5053573;28;19917;-80
2023/04/01 05:21:12;;;;;;;;;;;;;;;11.40;60.22;99651.47;5045465;28;19921;-80
2023/04/01 05:24:04;;;;;;;;;;;;;;;11.63;59.61;99644.31;5033011;28;20393;-80
2023/04/01 05:26:55;;;;;;;;;;;;;;;11.82;58.88;99647.22;5051874;28;20316;-81
2023/04/01 05:29:47;;;;;;;;;;;;;;;11.45;61.29;99648.50;5056028;28;19917;-80
2023/04/01 05:33:03;;;;;;;;;;;;;;;11.32;62.62;99655.94;5015168;28;19925;-81
2023/04/01 05:35:53;;;;;;;;;;;;;;;11.47;62.68;99657.91;5026553;28;19917;-81
2023/04/01 05:38:42;;;;;;;;;;;;;;;11.63;62.48;99655.22;5028266;28;19918;-81
2023/04/01 05:41:37;;;;;;;;;;;;;;;11.85;61.52;99656.63;5029956;28;19921;-81
2023/04/01 05:44:29;;;;;;;;;;;;;;;12.09;61.02;99661.13;5038834;28;19921;-81
2023/04/01 05:47:28;;;;;;;;;;;;;;;12.07;61.41;99658.75;5034114;28;19917;-81
2023/04/01 05:50:20;;;;;;;;;;;;;;;12.18;61.17;99659.03;5049747;28;19917;-82
2023/04/01 05:53:12;;;;;;;;;;;;;;;12.34;61.45;99654.38;5024360;28;19917;-82
2023/04/01 05:56:08;;;;;;;;;;;;;;;12.49;61.40;99659.03;5021019;28;20372;-82
2023/04/01 05:59:01;;;;;;;;;;;;;;;12.57;60.90;99668.94;5037441;28;19925;-81
2023/04/01 06:01:53;;;;;;;;;;;;;;;12.52;61.52;99669.22;5049441;28;19921;-81
2023/04/01 06:04:45;;;;;;;;;;;;;;;12.54;61.51;99677.84;5059109;28;19921;-81
2023/04/01 06:07:37;;;;;;;;;;;;;;;12.63;61.31;99675.72;5047860;28;19916;-82
2023/04/01 06:10:38;;;;;;;;;;;;;;;12.70;61.24;99669.59;5037940;28;19917;-81
2023/04/01 06:13:46;;;;;;;;;;;;;;;12.65;61.72;99673.41;5056383;28;19917;-82
2023/04/01 06:16:47;;;;;;;;;;;;;;;12.74;61.70;99670.50;5038848;28;20381;-82
2023/04/01 06:19:43;;;;;;;;;;;;;;;12.85;61.76;99680.50;5035037;28;19917;-81
2023/04/01 06:22:54;;;;;;;;;;;;;;;13.03;61.50;99689.09;5047368;28;19925;-82
2023/04/01 06:25:55;;;;;;;;;;;;;;;13.14;60.87;99692.88;5030245;28;19921;-82
2023/04/01 06:29:03;;;;;;;;;;;;;;;13.22;60.39;99682.88;5036641;28;19917;-81
2023/04/01 06:32:12;;;;;;;;;;;;;;;13.32;60.56;99692.44;5038810;28;19917;-82
2023/04/01 06:35:19;;;;;;;;;;;;;;;13.43;60.77;99688.81;5020854;28;20293;-82
2023/04/01 06:38:15;;;;;;;;;;;;;;;13.51;60.63;99698.72;5036652;28;19917;-82
2023/04/01 06:41:21;;;;;;;;;;;;;;;13.60;59.91;99704.78;5040325;28;19917;-81
2023/04/01 06:44:18;;;;;;;;;;;;;;;13.65;59.85;99695.50;5042532;28;19924;-82
2023/04/01 06:47:43;;;;;;;;;;;;;;;13.73;59.49;99699.13;5048957;28;19921;-82
2023/04/01 06:54:31;;;;;;;;;;;;;;;13.86;59.23;99695.13;4998858;28;19926;-80
2023/04/01 06:57:44;;;;;;;;;;;;;;;13.95;59.07;99699.19;4970283;28;19922;-79
2023/04/01 07:00:41;;;;;;;;;;;;;;;14.07;59.07;99707.22;4967495;28;20571;-81
2023/04/01 07:03:46;;;;;;;;;;;;;;;14.18;59.11;99698.41;4975390;28;19918;-83
2023/04/01 07:06:51;;;;;;;;;;;;;;;14.25;58.94;99710.28;4980719;28;19922;-84
2023/04/01 07:09:45;;;;;;;;;;;;;;;14.35;59.00;99704.19;4978292;28;19918;-83
2023/04/01 07:13:09;;;;;;;;;;;;;;;14.42;59.39;99707.09;4969993;28;19918;-80
2023/04/01 07:16:32;;;;;;;;;;;;;;;14.51;59.41;99717.78;4977178;28;19926;-83
2023/04/01 07:19:32;;;;;;;;;;;;;;;14.65;59.49;99707.06;4979641;28;19918;-83
2023/04/01 07:22:35;;;;;;;;;;;;;;;14.74;59.78;99709.53;4952998;28;19922;-83
2023/04/01 07:25:37;;;;;;;;;;;;;;;14.74;59.96;99710.31;4982590;28;20317;-83
2023/04/01 07:28:52;;;;;;;;;;;;;;;14.80;59.82;99713.53;4969632;28;19918;-82
2023/04/01 07:32:03;;;;;;;;;;;;;;;14.86;59.36;99709.34;4978131;28;19919;-82
2023/04/01 07:35:06;;;;;;;;;;;;;;;14.94;58.55;99711.00;4970992;28;20378;-82
2023/04/01 07:38:01;;;;;;;;;;;;;;;15.08;58.66;99710.44;4982027;28;20301;-81
2023/04/01 07:40:58;;;;;;;;;;;;;;;15.13;58.44;99715.59;4978483;28;19918;-85
2023/04/01 07:44:14;;;;;;;;;;;;;;;15.23;58.29;99712.22;4983473;28;19918;-85
2023/04/01 07:47:10;;;;;;;;;;;;;;;15.30;57.26;99715.84;4965321;28;19918;-84
2023/04/01 07:50:15;;;;;;;;;;;;;;;15.37;55.89;99721.41;4991676;28;19918;-85
2023/04/01 07:53:21;;;;;;;;;;;;;;;15.49;56.54;99728.59;4980454;28;20297;-85
2023/04/01 07:56:14;;;;;;;;;;;;;;;15.55;55.41;99724.41;4981125;28;19918;-84
2023/04/01 07:59:10;;;;;;;;;;;;;;;15.63;55.41;99719.81;4976205;28;20398;-84
2023/04/01 08:02:25;;;;;;;;;;;;;;;15.73;55.12;99727.38;4976862;28;19918;-84
2023/04/01 08:05:24;;;;;;;;;;;;;;;15.78;52.62;99730.56;4981148;28;19952;-84
2023/04/01 08:08:16;;;;;;;;;;;;;;;15.88;53.82;99728.31;4984179;28;19917;-84
2023/04/01 08:11:48;;;;;;;;;;;;;;;16.05;54.98;99738.72;4972847;28;20370;-84
2023/04/01 08:15:21;;;;;;;;;;;;;;;16.15;55.17;99733.31;4949755;29;20406;-85
2023/04/01 08:18:37;;;;;;;;;;;;;;;16.19;54.41;99716.91;4942281;29;19918;-84
2023/04/01 08:21:30;;;;;;;;;;;;;;;16.33;54.21;99716.25;4963208;28;20394;-83
2023/04/01 08:24:32;;;;;;;;;;;;;;;16.39;54.18;99718.28;4933847;29;19922;-83
2023/04/01 08:27:28;;;;;;;;;;;;;;;16.49;53.73;99725.03;4972943;28;19918;-84
2023/04/01 08:30:26;;;;;;;;;;;;;;;16.56;53.47;99719.56;4958806;28;20390;-82
2023/04/01 08:33:22;;;;;;;;;;;;;;;16.64;52.46;99719.31;4959709;28;20302;-81
2023/04/01 08:36:26;;;;;;;;;;;;;;;16.75;52.32;99724.09;4975901;28;20309;-80
2023/04/01 08:39:33;;;;;;;;;;;;;;;16.83;52.41;99718.25;4962554;28;19919;-84
2023/04/01 08:42:56;;;;;;;;;;;;;;;16.92;52.57;99721.47;4972619;28;19918;-84
2023/04/01 08:46:04;;;;;;;;;;;;;;;27.90;26.17;99726.31;4972123;28;19922;-76
2023/04/01 08:49:19;;;;;;;;;;;;;;;31.41;20.97;99737.31;4968782;28;20390;-77
2023/04/01 08:52:27;;;;;;;;;;;;;;;31.91;19.95;99748.72;4965846;28;19921;-77
2023/04/01 08:55:28;;;;;;;;;;;;;;;32.48;18.04;99754.81;4990565;28;19918;-77
2023/04/01 08:58:37;;;;;;;;;;;;;;;32.53;17.92;99756.16;4991204;28;19922;-77
2023/04/01 09:01:54;;;;;;;;;;;;;;;32.12;18.01;99763.69;4972670;28;19918;-75
2023/04/01 09:05:02;;;;;;;;;;;;;;;32.61;17.36;99769.31;4978455;28;19922;-77
2023/04/01 09:08:19;;;;;;;;;;;;;;;34.72;15.88;99775.78;4976413;28;19918;-77
2023/04/01 09:11:11;;;;;;;;;;;;;;;35.52;15.48;99771.53;4974703;28;19922;-77
2023/04/01 09:14:43;;;;;;;;;;;;;;;33.60;15.42;99768.34;4987260;28;20297;-77
2023/04/01 09:17:58;;;;;;;;;;;;;;;33.49;16.71;99765.41;4987537;28;19918;-77
2023/04/01 09:20:56;;;;;;;;;;;;;;;32.99;16.34;99768.34;4976071;28;20378;-77
2023/04/01 09:23:46;;;;;;;;;;;;;;;34.59;15.20;99769.78;4980403;28;19922;-77
2023/04/01 09:26:39;;;;;;;;;;;;;;;37.21;13.54;99780.28;4978908;28;19926;-77
2023/04/01 09:29:28;;;;;;;;;;;;;;;35.21;14.39;99774.50;4991690;28;20348;-77
2023/04/01 09:32:21;;;;;;;;;;;;;;;34.21;15.08;99756.91;4992499;28;19917;-78
2023/04/01 09:35:36;;;;;;;;;;;;;;;36.03;13.94;99758.25;4994765;28;20305;-77
2023/04/01 09:38:27;;;;;;;;;;;;;;;33.34;16.29;99753.44;4995681;28;19918;-77
2023/04/01 09:41:26;;;;;;;;;;;;;;;33.21;16.11;99750.22;4979828;28;19918;-77
2023/04/01 09:44:33;;;;;;;;;;;;;;;35.04;14.58;99751.81;4977655;28;19930;-77
2023/04/01 09:47:57;;;;;;;;;;;;;;;33.66;15.83;99752.25;4972784;28;19918;-77
2023/04/01 09:51:04;;;;;;;;;;;;;;;33.50;16.13;99750.03;4986358;28;19930;-76
2023/04/01 09:54:00;;;;;;;;;;;;;;;34.38;15.06;99749.34;4988977;28;19925;-76
2023/04/01 09:57:03;;;;;;;;;;;;;;;36.19;13.77;99763.19;4985072;28;20669;-76
2023/04/01 10:00:13;;;;;;;;;;;;;;;34.48;14.46;99756.34;4992339;28;19918;-77
2023/04/01 10:03:16;;;;;;;;;;;;;;;36.30;13.58;99760.34;4988766;28;19918;-77
2023/04/01 10:06:24;;;;;;;;;;;;;;;35.92;13.72;99746.94;4983587;28;19922;-77
2023/04/01 10:09:34;;;;;;;;;;;;;;;37.78;11.97;99747.50;4992640;28;20373;-77
2023/04/01 10:12:40;;;;;;;;;;;;;;;37.46;12.50;99749.97;4956440;28;19918;-77
2023/04/01 10:15:51;;;;;;;;;;;;;;;38.65;12.08;99742.91;4986312;28;20389;-77
2023/04/01 10:18:52;;;;;;;;;;;;;;;36.81;13.15;99749.72;4983689;28;19918;-77
2023/04/01 10:21:48;;;;;;;;;;;;;;;36.27;13.96;99741.53;4973281;28;19930;-77
2023/04/01 10:25:03;;;;;;;;;;;;;;;36.50;13.34;99741.53;4964126;28;19923;-78
2023/04/01 10:27:56;;;;;;;;;;;;;;;38.32;12.51;99744.75;4971253;28;20489;-78
2023/04/01 10:31:08;;;;;;;;;;;;;;;38.20;11.12;99740.44;4976503;28;19918;-77
2023/04/01 10:34:14;;;;;;;;;;;;;;;38.22;11.65;99735.03;4982103;28;19914;-77
2023/04/01 10:37:13;;;;;;;;;;;;;;;39.52;10.68;99736.63;4972268;28;19917;-77
2023/04/01 10:40:30;;;;;;;;;;;;;;;40.39;10.02;99734.22;4973226;28;19918;-78
2023/04/01 10:44:17;;;;;;;;;;;;;;;39.90;10.14;99740.25;4968770;28;19918;-77
2023/04/01 10:47:26;;;;;;;;;;;;;;;40.50;9.87;99731.94;4952531;28;19923;-77
2023/04/01 10:50:34;;;;;;;;;;;;;;;42.71;8.81;99732.38;4954036;28;19918;-78
2023/04/01 10:53:40;;;;;;;;;;;;;;;42.36;8.68;99725.25;4972885;28;19918;-78
2023/04/01 10:56:59;;;;;;;;;;;;;;;39.92;9.64;99723.38;4958344;28;19918;-77
2023/04/01 10:59:59;;;;;;;;;;;;;;;39.80;9.68;99709.84;4954420;29;19918;-76
2023/04/01 11:03:20;;;;;;;;;;;;;;;40.07;8.64;99709.41;4966437;28;19918;-76
2023/04/01 11:06:48;;;;;;;;;;;;;;;40.97;8.67;99714.19;4959696;28;19922;-76
2023/04/01 11:09:57;;;;;;;;;;;;;;;42.98;8.07;99704.28;4977959;28;20364;-77
2023/04/01 11:13:06;;;;;;;;;;;;;;;42.48;8.23;99709.31;4974253;28;19918;-77
2023/04/01 11:16:02;;;;;;;;;;;;;;;44.48;6.98;99710.88;4978198;28;19926;-77
2023/04/01 11:19:22;;;;;;;;;;;;;;;43.65;7.37;99708.72;4976051;28;19918;-77
2023/04/01 11:22:22;;;;;;;;;;;;;;;42.64;7.79;99710.19;4972695;28;19921;-77
2023/04/01 11:25:31;;;;;;;;;;;;;;;46.03;6.45;99711.16;4959768;28;19922;-78
2023/04/01 11:29:07;;;;;;;;;;;;;;;39.99;10.14;99696.31;4971346;28;20402;-76
2023/04/01 11:32:20;;;;;;;;;;;;;;;41.76;8.58;99688.28;4969126;28;19918;-81
2023/04/01 11:35:24;;;;;;;;;;;;;;;43.34;7.54;99689.94;4956011;28;19918;-82
2023/04/01 11:38:25;;;;;;;;;;;;;;;42.98;7.59;99682.16;4976663;28;19926;-82
2023/04/01 11:41:26;;;;;;;;;;;;;;;46.02;6.84;99690.28;4953673;28;19920;-84
2023/04/01 11:44:50;;;;;;;;;;;;;;;43.44;7.85;99690.91;4970389;28;19922;-84
2023/04/01 11:47:51;;;;;;;;;;;;;;;44.47;7.14;99686.41;4958031;28;19926;-81
2023/04/01 11:50:40;;;;;;;;;;;;;;;43.89;7.47;99688.16;4969336;28;19918;-81
2023/04/01 11:53:48;;;;;;;;;;;;;;;43.67;7.25;99682.38;4974188;28;20540;-83
2023/04/01 11:56:44;;;;;;;;;;;;;;;39.16;9.54;99670.69;4977544;28;20389;-82
2023/04/01 11:59:40;;;;;;;;;;;;;;;41.62;8.62;99678.25;4978501;28;19918;-82
2023/04/01 12:02:41;;;;;;;;;;;;;;;40.89;8.17;99681.97;4956895;29;20386;-81
2023/04/01 12:05:51;;;;;;;;;;;;;;;42.79;6.53;99670.25;4969196;28;19923;-84
2023/04/01 12:08:54;;;;;;;;;;;;;;;43.32;6.66;99672.56;4982364;28;19917;-83
2023/04/01 12:11:47;;;;;;;;;;;;;;;43.67;6.86;99665.19;4992984;28;19918;-83
2023/04/01 12:14:55;;;;;;;;;;;;;;;40.35;9.07;99668.25;4992822;28;20437;-78
2023/04/01 12:17:54;;;;;;;;;;;;;;;40.68;9.15;99659.06;4972442;28;19918;-78
2023/04/01 12:20:57;;;;;;;;;;;;;;;38.96;11.15;99653.38;4973322;28;19918;-82
2023/04/01 12:23:50;;;;;;;;;;;;;;;33.14;13.07;99633.03;4967927;28;19922;-84
2023/04/01 12:26:56;;;;;;;;;;;;;;;29.97;16.00;99636.66;4978770;28;19922;-84
2023/04/01 12:30:01;;;;;;;;;;;;;;;28.90;17.04;99629.53;4970013;28;19919;-83
2023/04/01 12:32:53;;;;;;;;;;;;;;;27.95;17.52;99622.31;4973473;28;19918;-82
2023/04/01 12:35:58;;;;;;;;;;;;;;;26.84;18.80;99622.06;4976454;28;19919;-81
2023/04/01 12:39:05;;;;;;;;;;;;;;;26.20;19.92;99618.63;4973987;28;19918;-82
2023/04/01 12:42:28;;;;;;;12.05;2.65;;;;;;;25.93;20.91;99621.88;4963756;28;19922;-81
2023/04/01 12:45:24;;;;;;;13.82;3.72;;;;;;;25.92;20.97;99616.75;4976867;28;20058;-79
2023/04/01 12:48:17;;;;;;;;;;;;;;;25.78;21.26;99609.63;4978581;28;20050;-85
2023/04/01 12:51:09;;;;;;;;;;;;;;;25.32;21.19;99613.78;4959385;28;19918;-84
2023/04/01 12:54:14;;;;;;;;;;;;;;;25.07;21.04;99605.34;4974924;28;20401;-80
2023/04/01 12:57:07;;;;;;;;;;;;;;;24.80;20.99;99604.88;4970657;28;19913;-83
2023/04/01 13:00:15;;;;;;;;;;;;;;;24.53;20.84;99602.44;4977267;28;20305;-83
2023/04/01 13:03:07;;;;;;;;;;;;;;;24.80;21.78;99599.31;4963650;28;19913;-82
2023/04/01 13:06:16;;;;;;;;;;;;;;;24.79;21.93;99598.53;4984255;28;19922;-83
2023/04/01 13:09:23;;;;;;;;;;;;;;;24.51;22.19;99582.63;4966788;28;21730;-81
2023/04/01 13:12:32;;;;;;;;;;;;;;;24.51;22.52;99579.84;4972040;28;19914;-82
2023/04/01 13:15:26;;;;;;;;;;;;;;;24.49;22.30;99574.72;4956872;29;19918;-81
2023/04/01 13:18:30;;;;;;;;;;;;;;;24.37;21.61;99581.00;4962258;28;19914;-82
2023/04/01 13:21:32;;;;;;;;;;;;;;;23.99;19.46;99580.72;4955704;28;20377;-81
2023/04/01 13:24:34;;;;;;;;;;;;;;;23.97;19.37;99579.59;4973667;28;19915;-82
2023/04/01 13:27:28;;;;;;;;;;;;;;;24.01;20.30;99563.63;4957394;28;19918;-81
2023/04/01 13:30:27;;;;;;;;;;;;;;;24.04;20.73;99562.75;4956729;29;19914;-82
2023/04/01 13:33:32;;;;;;;;;;;;;;;24.12;20.55;99564.16;4956755;28;19919;-83
2023/04/01 13:36:40;;;;;;;;;;;;;;;24.17;20.55;99570.00;4962314;28;19914;-82
2023/04/01 13:39:51;;;;;;;;;;;;;;;24.21;20.12;99553.22;4958228;28;19914;-81
2023/04/01 13:42:48;;;;;;;;;;;;;;;24.13;19.88;99551.81;4971123;28;19914;-81
2023/04/01 13:45:50;;;;;;;;;;;;;;;24.06;21.00;99540.88;4983455;28;19921;-81
2023/04/01 13:48:51;;;;;;;;;;;;;;;24.17;20.83;99550.56;4987916;28;19914;-81
2023/04/01 13:51:58;;;;;;;;;;;;;;;24.10;19.16;99542.34;4979228;28;19914;-82
2023/04/01 13:54:54;;;;;;;;;;;;;;;24.01;18.99;99530.31;4975244;28;19918;-83
2023/04/01 13:58:16;;;;;;;;;;;;;;;23.94;19.36;99541.56;4992649;28;20365;-82
2023/04/01 14:01:35;;;;;;;;;;;;;;;24.01;19.52;99530.31;4974906;28;19914;-82
2023/04/01 14:04:27;;;;;;;;;;;;;;;24.03;20.45;99525.06;4920205;28;20282;-81
2023/04/01 14:07:32;;;;;;;;;;;;;;;24.19;18.70;99522.31;4994964;28;19922;-81
2023/04/01 14:10:34;;;;;;;;;;;;;;;24.01;18.47;99519.19;4978085;28;19914;-82
2023/04/01 14:13:29;;;;;;;;;;;;;;;23.99;18.75;99525.16;4994813;28;19914;-82
2023/04/01 14:16:35;;;;;;;;;;;;;;;23.78;18.31;99525.69;4994776;28;19914;-82
2023/04/01 14:19:42;;;;;;;;;;;;;;;23.69;17.43;99528.28;4974584;28;19918;-82
2023/04/01 14:22:50;;;;;;;;;;;;;;;23.72;18.04;99522.66;4975210;28;19914;-82
2023/04/01 14:26:01;;;;;;;;;;;;;;;23.79;18.82;99516.16;4980795;28;19933;-81
2023/04/01 14:28:59;;;;;;;;;;;;;;;23.58;18.84;99520.22;4978584;28;19914;-81
2023/04/01 14:31:55;;;;;;;;;;;;;;;23.54;18.81;99522.31;4978185;28;20370;-82
2023/04/01 14:34:55;;;;;;;;;;;;;;;23.59;19.01;99512.69;4978897;28;19914;-81
2023/04/01 14:37:53;;;;;;;;;;;;;;;23.70;18.64;99502.88;4974990;28;19914;-82
2023/04/01 14:40:59;;;;;;;;;;;;;;;23.73;18.22;99499.22;4987931;28;19914;-82
2023/04/01 14:44:03;;;;;;;;;;;;;;;23.79;17.50;99486.41;4994273;28;20378;-81
2023/04/01 14:47:12;;;;;;;;;;;;;;;23.77;17.64;99480.47;4959860;28;20305;-82
2023/04/01 14:50:08;;;;;;;;;;;;;;;23.67;17.96;99487.09;4963753;28;19918;-81
2023/04/01 14:53:01;;;;;;;;;;;;;;;23.59;18.15;99479.38;4963500;28;19914;-82
2023/04/01 14:56:00;;;;;;;;;;;;;;;23.60;18.64;99476.16;4973885;28;19914;-82
2023/04/01 14:58:52;;;;;;;;;;;;;;;23.54;18.61;99479.88;4975021;28;20297;-82
2023/04/01 15:01:52;;;;;;;;;;;;;;;23.47;18.14;99477.31;4976474;28;19918;-82
2023/04/01 15:05:00;;;;;;;;;;;;;;;23.54;18.87;99477.91;4977975;28;19914;-83
2023/04/01 15:08:01;;;;;;;;;;;;;;;23.39;18.44;99473.88;4972938;28;19918;-82
2023/04/01 15:11:20;;;;;;;;;;;;;;;23.31;19.00;99478.03;4968630;28;19914;-83
2023/04/01 15:14:39;;;;;;;;;;;;;;;23.35;19.50;99473.16;4963704;28;19913;-83
2023/04/01 15:17:34;;;;;;;;;;;;;;;23.24;18.88;99465.09;4928200;28;19915;-81
2023/04/01 15:20:42;;;;;;;;;;;;;;;23.13;19.03;99469.31;4968799;28;19919;-81
2023/04/01 15:23:39;;;;;;;;;;;;;;;23.05;18.64;99459.59;4969544;28;20377;-82
2023/04/01 15:26:45;;;;;;;;;;;;;;;22.94;18.59;99452.28;4972947;28;19918;-82
2023/04/01 15:29:41;;;;;;;;;;;;;;;22.75;18.32;99450.34;4975373;28;19914;-82
2023/04/01 15:32:37;;;;;;;;;;;;;;;22.61;18.46;99451.38;4948738;28;19913;-81
2023/04/01 15:35:36;;;;;;;;;;;;;;;22.51;20.19;99468.22;4973895;28;19914;-82
2023/04/01 15:38:43;;;;;;;;;;;;;;;22.38;21.54;99468.06;4959800;28;19914;-82
2023/04/01 15:41:41;;;;;;;;;;;;;;;22.29;22.25;99472.63;4959367;28;19914;-82